Time;durP1;ratioP1;P1;durP2;ratioP2;P2;SDS_P1;SDS_P2;PMS_P1;PMS_P2;Temp;Humidity;BMP_temperature;BMP_pressure;BME280_temperature;BME280_humidity;BME280_pressure;Samples;Min_cycle;Max_cycle;Signal;HPM_P1;HPM_P2
2021/07/04 00:00:45;;;;;;;2.53;2.05;;;24.80;54.50;;;;;;5051807;28;20183;-53
2021/07/04 00:03:12;;;;;;;4.30;3.00;;;24.80;54.50;;;;;;5051654;28;20527;-51
2021/07/04 00:05:46;;;;;;;2.45;2.13;;;24.80;54.50;;;;;;5052251;28;20098;-54
2021/07/04 00:08:17;;;;;;;2.90;2.13;;;24.80;54.50;;;;;;5052212;28;20347;-50
2021/07/04 00:10:47;;;;;;;2.80;2.37;;;24.80;54.50;;;;;;5051335;28;20044;-56
2021/07/04 00:13:14;;;;;;;2.80;2.25;;;24.80;54.50;;;;;;5051354;28;20029;-53
2021/07/04 00:15:41;;;;;;;3.97;2.00;;;24.80;54.60;;;;;;5051940;28;20112;-50
2021/07/04 00:18:09;;;;;;;2.70;2.08;;;24.80;54.60;;;;;;5055787;28;20127;-54
2021/07/04 00:20:35;;;;;;;3.38;2.13;;;24.80;54.50;;;;;;5066950;28;20477;-52
2021/07/04 00:23:00;;;;;;;2.10;1.90;;;24.80;54.50;;;;;;5058122;28;20119;-53
2021/07/04 00:25:27;;;;;;;2.53;2.30;;;24.80;54.50;;;;;;5064573;28;20106;-53
2021/07/04 00:27:53;;;;;;;3.28;2.33;;;24.90;54.50;;;;;;5069686;28;20462;-50
2021/07/04 00:30:20;;;;;;;2.55;2.35;;;24.80;54.60;;;;;;5070469;28;20477;-52
2021/07/04 00:32:45;;;;;;;2.58;1.92;;;24.80;54.50;;;;;;5052265;28;20033;-55
2021/07/04 00:35:13;;;;;;;2.22;2.03;;;24.80;54.50;;;;;;5059646;28;20032;-48
2021/07/04 00:37:39;;;;;;;3.28;2.30;;;24.90;54.50;;;;;;5066144;28;20077;-51
2021/07/04 00:40:06;;;;;;;2.35;2.03;;;24.90;55.30;;;;;;5069784;28;20043;-51
2021/07/04 00:42:32;;;;;;;2.13;1.90;;;24.80;54.60;;;;;;5070449;28;20037;-53
2021/07/04 00:44:58;;;;;;;2.22;1.77;;;24.80;54.60;;;;;;5066852;28;20086;-51
2021/07/04 00:47:24;;;;;;;2.65;2.10;;;24.80;54.60;;;;;;5063318;28;20029;-54
2021/07/04 00:49:50;;;;;;;3.00;2.10;;;24.80;54.60;;;;;;5050289;28;20029;-53
2021/07/04 00:52:16;;;;;;;2.97;2.03;;;24.80;54.60;;;;;;5051483;28;20416;-53
2021/07/04 00:54:42;;;;;;;3.58;2.20;;;24.80;54.70;;;;;;5067383;28;20036;-51
2021/07/04 00:57:08;;;;;;;2.88;1.88;;;24.80;54.70;;;;;;5059472;28;20035;-51
2021/07/04 00:59:34;;;;;;;3.30;2.10;;;24.80;54.70;;;;;;5050688;28;20048;-49
2021/07/04 01:02:00;;;;;;;2.17;1.98;;;24.80;54.70;;;;;;5058901;28;20029;-55
2021/07/04 01:04:29;;;;;;;3.05;2.20;;;24.80;54.70;;;;;;5056197;28;20036;-53
2021/07/04 01:06:55;;;;;;;2.20;2.00;;;24.80;54.70;;;;;;5053679;28;20033;-53
2021/07/04 01:09:21;;;;;;;2.40;2.00;;;24.80;54.70;;;;;;5054716;28;20017;-51
2021/07/04 01:11:48;;;;;;;2.20;2.00;;;24.80;55.40;;;;;;5038984;28;20044;-57
2021/07/04 01:14:14;;;;;;;2.10;1.90;;;24.80;54.70;;;;;;5054432;28;20043;-52
2021/07/04 01:16:40;;;;;;;2.10;1.90;;;24.80;54.70;;;;;;5058580;28;20116;-49
2021/07/04 01:19:07;;;;;;;2.78;2.20;;;24.80;54.80;;;;;;5053216;28;20720;-54
2021/07/04 01:21:33;;;;;;;2.58;2.15;;;24.80;54.70;;;;;;5054336;28;20033;-52
2021/07/04 01:24:00;;;;;;;1.95;1.75;;;24.80;54.70;;;;;;5054466;28;20025;-53
2021/07/04 01:26:25;;;;;;;2.47;2.28;;;24.80;54.80;;;;;;5041911;28;20032;-53
2021/07/04 01:28:51;;;;;;;2.35;1.88;;;24.80;54.80;;;;;;5072284;28;20474;-54
2021/07/04 01:31:17;;;;;;;2.25;1.98;;;24.80;54.80;;;;;;5073519;28;20036;-53
2021/07/04 01:33:43;;;;;;;3.15;2.10;;;24.80;54.80;;;;;;5056617;28;20036;-52
2021/07/04 01:36:10;;;;;;;2.90;1.90;;;24.80;54.80;;;;;;5063932;28;20108;-55
2021/07/04 01:38:36;;;;;;;2.20;2.00;;;24.80;54.80;;;;;;5061436;28;20381;-54
2021/07/04 01:41:02;;;;;;;2.00;1.70;;;24.80;54.80;;;;;;5055526;28;20112;-52
2021/07/04 01:43:28;;;;;;;2.00;1.77;;;24.80;54.80;;;;;;5055666;28;20040;-54
2021/07/04 01:45:53;;;;;;;2.40;2.20;;;24.80;54.80;;;;;;5067593;28;20033;-51
2021/07/04 01:48:19;;;;;;;3.13;1.83;;;24.80;54.80;;;;;;5055267;28;20029;-54
2021/07/04 01:50:47;;;;;;;2.28;2.08;;;24.80;54.80;;;;;;5054542;28;20028;-57
2021/07/04 01:53:15;;;;;;;2.35;1.83;;;24.80;54.90;;;;;;5056432;28;20029;-47
2021/07/04 01:55:40;;;;;;;4.43;2.45;;;24.80;54.80;;;;;;5073248;28;20123;-53
2021/07/04 01:58:06;;;;;;;2.13;1.92;;;24.80;54.90;;;;;;5063056;28;20125;-51
2021/07/04 02:00:35;;;;;;;2.00;1.67;;;24.80;55.00;;;;;;5071534;28;20041;-49
2021/07/04 02:03:04;;;;;;;2.03;1.83;;;24.80;54.90;;;;;;5066341;28;20029;-55
2021/07/04 02:05:30;;;;;;;2.47;1.90;;;24.80;54.90;;;;;;5053519;28;20394;-48
2021/07/04 02:07:56;;;;;;;2.33;1.90;;;24.80;54.90;;;;;;5052753;28;20040;-53
2021/07/04 02:10:29;;;;;;;3.33;2.22;;;24.80;55.00;;;;;;5053636;28;20036;-52
2021/07/04 02:12:56;;;;;;;2.20;1.92;;;24.80;55.00;;;;;;5055997;28;20021;-50
2021/07/04 02:15:24;;;;;;;2.58;2.35;;;24.80;55.00;;;;;;5072508;28;20032;-51
2021/07/04 02:17:50;;;;;;;2.70;2.03;;;24.80;55.00;;;;;;5062757;28;20587;-51
2021/07/04 02:20:33;;;;;;;2.00;1.77;;;24.80;55.00;;;;;;5054354;28;20021;-51
2021/07/04 02:23:10;;;;;;;2.75;2.00;;;24.80;55.00;;;;;;5052432;28;20025;-50
2021/07/04 02:25:38;;;;;;;2.60;1.80;;;24.80;55.00;;;;;;5052837;28;20115;-49
2021/07/04 02:28:05;;;;;;;3.13;2.13;;;24.80;55.00;;;;;;5060509;28;20111;-55
2021/07/04 02:30:31;;;;;;;2.45;1.92;;;24.80;55.00;;;;;;5054336;28;20033;-50
2021/07/04 02:33:02;;;;;;;1.92;1.63;;;24.80;55.10;;;;;;5042450;28;20035;-49
2021/07/04 02:35:29;;;;;;;2.55;2.10;;;24.80;55.10;;;;;;5069380;28;20036;-52
2021/07/04 02:37:55;;;;;;;3.10;1.90;;;24.80;55.10;;;;;;5071478;28;20028;-49
2021/07/04 02:40:22;;;;;;;2.35;2.08;;;24.80;55.00;;;;;;5071464;28;20797;-50
2021/07/04 02:42:47;;;;;;;2.83;1.77;;;24.80;55.10;;;;;;5047766;28;20387;-57
2021/07/04 02:45:14;;;;;;;2.03;1.70;;;24.80;55.10;;;;;;5067626;28;20035;-51
2021/07/04 02:47:40;;;;;;;2.33;1.75;;;24.80;55.00;;;;;;5067206;28;20381;-52
2021/07/04 02:50:07;;;;;;;2.03;1.70;;;24.80;55.10;;;;;;5064613;28;20107;-51
2021/07/04 02:52:32;;;;;;;2.45;1.80;;;24.80;55.10;;;;;;5067675;28;20028;-48
2021/07/04 02:54:58;;;;;;;2.50;1.70;;;24.80;55.10;;;;;;5067603;28;20037;-48
2021/07/04 02:57:24;;;;;;;3.72;2.00;;;24.80;55.20;;;;;;5069491;28;20025;-48
2021/07/04 02:59:49;;;;;;;2.38;2.05;;;24.80;55.20;;;;;;5065934;28;20481;-56
2021/07/04 03:02:15;;;;;;;2.42;2.00;;;24.80;55.20;;;;;;5066807;28;20032;-53
2021/07/04 03:04:41;;;;;;;2.00;1.60;;;24.80;55.20;;;;;;5067631;28;20113;-54
2021/07/04 03:07:07;;;;;;;1.90;1.70;;;24.80;55.20;;;;;;5068079;28;20725;-49
2021/07/04 03:09:32;;;;;;;2.53;1.85;;;24.80;55.20;;;;;;5068331;28;20111;-54
2021/07/04 03:11:58;;;;;;;2.22;1.98;;;24.80;55.20;;;;;;5066497;28;20031;-55
2021/07/04 03:14:25;;;;;;;2.20;2.00;;;24.80;55.30;;;;;;5067575;28;20036;-50
2021/07/04 03:16:50;;;;;;;2.88;1.83;;;24.80;55.30;;;;;;5066584;28;20020;-55
2021/07/04 03:19:16;;;;;;;1.88;1.63;;;24.80;55.30;;;;;;5067577;28;20481;-47
2021/07/04 03:21:42;;;;;;;3.40;2.00;;;24.80;55.30;;;;;;5068672;28;20033;-52
2021/07/04 03:24:07;;;;;;;2.03;1.83;;;24.80;55.20;;;;;;5066092;28;20218;-52
2021/07/04 03:26:33;;;;;;;2.22;2.00;;;24.80;55.40;;;;;;5066904;28;20040;-52
2021/07/04 03:28:59;;;;;;;2.33;1.80;;;24.80;55.50;;;;;;5068573;28;20093;-50
2021/07/04 03:31:25;;;;;;;2.53;2.10;;;24.80;55.50;;;;;;5069125;28;20060;-48
2021/07/04 03:33:51;;;;;;;2.13;1.88;;;24.80;55.30;;;;;;5053122;28;20071;-55
2021/07/04 03:36:16;;;;;;;1.98;1.55;;;24.80;55.30;;;;;;5052342;28;20513;-47
2021/07/04 03:38:42;;;;;;;2.05;1.83;;;24.80;55.40;;;;;;5066715;28;20029;-47
2021/07/04 03:41:07;;;;;;;2.08;1.77;;;24.80;55.30;;;;;;5069151;28;20060;-50
2021/07/04 03:43:33;;;;;;;2.88;1.90;;;24.80;55.40;;;;;;5069337;28;20470;-50
2021/07/04 03:45:59;;;;;;;2.80;1.88;;;24.80;55.50;;;;;;5050994;28;20032;-52
2021/07/04 03:48:24;;;;;;;2.22;1.73;;;24.80;55.40;;;;;;5070960;28;20082;-48
2021/07/04 03:50:50;;;;;;;3.50;2.08;;;24.80;55.30;;;;;;5068956;28;20060;-54
2021/07/04 03:53:16;;;;;;;1.98;1.77;;;24.70;55.30;;;;;;5070866;28;20028;-49
2021/07/04 03:55:41;;;;;;;2.30;2.10;;;24.70;55.30;;;;;;5071202;28;20032;-50
2021/07/04 03:58:07;;;;;;;2.42;1.90;;;24.70;55.40;;;;;;5054040;28;20828;-52
2021/07/04 04:00:33;;;;;;;1.85;1.73;;;24.80;55.40;;;;;;5064238;28;20422;-53
2021/07/04 04:02:58;;;;;;;1.80;1.63;;;24.70;55.40;;;;;;5051204;28;20106;-49
2021/07/04 04:05:24;;;;;;;2.08;1.65;;;24.80;55.40;;;;;;5063153;28;20040;-52
2021/07/04 04:07:50;;;;;;;1.90;1.70;;;24.80;55.40;;;;;;5070169;28;20033;-58
2021/07/04 04:10:17;;;;;;;2.00;1.80;;;24.70;55.50;;;;;;5061222;28;20029;-51
2021/07/04 04:12:43;;;;;;;2.47;1.90;;;24.80;55.40;;;;;;5070511;28;20037;-53
2021/07/04 04:15:10;;;;;;;1.98;1.83;;;24.70;55.50;;;;;;5070102;28;20678;-57
2021/07/04 04:17:36;;;;;;;2.05;1.85;;;24.70;55.40;;;;;;5067820;28;20089;-48
2021/07/04 04:20:04;;;;;;;2.65;1.95;;;24.70;55.80;;;;;;5068866;28;20032;-53
2021/07/04 04:22:30;;;;;;;2.05;1.85;;;24.80;55.50;;;;;;5065750;28;20090;-51
2021/07/04 04:24:55;;;;;;;2.10;1.90;;;24.80;55.50;;;;;;5058963;28;20040;-55
2021/07/04 04:27:21;;;;;;;2.45;2.05;;;24.80;55.60;;;;;;5050710;28;20112;-53
2021/07/04 04:29:47;;;;;;;3.03;1.65;;;24.80;55.70;;;;;;5052638;28;20144;-54
2021/07/04 04:32:13;;;;;;;2.58;1.65;;;24.80;55.80;;;;;;5050582;28;20584;-51
2021/07/04 04:34:38;;;;;;;5.15;2.00;;;24.80;55.70;;;;;;5051437;28;20430;-54
2021/07/04 04:37:05;;;;;;;2.28;1.83;;;24.80;55.50;;;;;;5071465;28;20466;-52
2021/07/04 04:39:31;;;;;;;1.98;1.77;;;24.80;55.50;;;;;;5064462;28;20032;-51
2021/07/04 04:41:57;;;;;;;2.63;1.75;;;24.80;55.50;;;;;;5073578;28;20497;-54
2021/07/04 04:44:23;;;;;;;2.05;1.73;;;24.80;55.50;;;;;;5057483;28;20068;-54
2021/07/04 04:46:48;;;;;;;2.08;1.88;;;24.80;55.60;;;;;;5067433;28;20457;-53
2021/07/04 04:49:14;;;;;;;1.95;1.70;;;24.80;55.80;;;;;;5059835;28;20039;-55
2021/07/04 04:51:40;;;;;;;2.00;1.77;;;24.80;55.70;;;;;;5054557;28;20042;-55
2021/07/04 04:54:07;;;;;;;2.45;1.80;;;24.80;55.70;;;;;;5057524;28;20039;-55
2021/07/04 04:56:33;;;;;;;3.38;1.88;;;24.80;56.20;;;;;;5074652;28;20362;-54
2021/07/04 04:59:00;;;;;;;2.13;1.85;;;24.90;55.50;;;;;;5071524;28;20049;-54
2021/07/04 05:01:28;;;;;;;4.85;2.05;;;24.90;55.40;;;;;;5063296;28;20036;-53
2021/07/04 05:03:57;;;;;;;2.05;1.70;;;25.00;55.30;;;;;;5059354;28;20029;-57
2021/07/04 05:06:23;;;;;;;2.90;2.22;;;25.00;55.20;;;;;;5072801;28;20086;-55
2021/07/04 05:08:49;;;;;;;1.77;1.58;;;25.10;55.10;;;;;;5064460;28;20029;-52
2021/07/04 05:11:15;;;;;;;2.22;1.80;;;25.10;55.00;;;;;;5066864;28;20087;-53
2021/07/04 05:13:41;;;;;;;2.80;1.80;;;25.20;54.90;;;;;;5061489;28;20032;-55
2021/07/04 05:16:07;;;;;;;2.38;1.60;;;25.20;54.80;;;;;;5071126;28;20075;-56
2021/07/04 05:18:33;;;;;;;2.30;1.80;;;25.20;54.70;;;;;;5068334;28;20049;-54
2021/07/04 05:20:59;;;;;;;3.85;1.73;;;25.30;54.70;;;;;;5053450;28;20474;-54
2021/07/04 05:23:25;;;;;;;2.17;1.58;;;25.30;54.70;;;;;;5063300;28;20077;-57
2021/07/04 05:25:53;;;;;;;1.70;1.60;;;25.30;54.50;;;;;;5072187;28;20051;-58
2021/07/04 05:28:19;;;;;;;1.75;1.65;;;25.30;54.50;;;;;;5068012;28;20057;-54
2021/07/04 05:30:45;;;;;;;3.45;1.77;;;25.30;54.40;;;;;;5053839;28;20044;-54
2021/07/04 05:33:10;;;;;;;3.25;1.92;;;25.40;54.40;;;;;;5046875;28;20862;-55
2021/07/04 05:35:36;;;;;;;2.00;1.38;;;25.40;54.30;;;;;;5072450;28;20033;-55
2021/07/04 05:38:02;;;;;;;2.45;1.60;;;25.50;54.50;;;;;;5072577;28;20066;-53
2021/07/04 05:40:28;;;;;;;2.58;1.65;;;25.50;54.40;;;;;;5073211;28;20028;-55
2021/07/04 05:42:54;;;;;;;2.00;1.48;;;25.50;54.30;;;;;;5060090;28;20033;-58
2021/07/04 05:45:26;;;;;;;2.22;1.80;;;25.50;54.30;;;;;;5054436;28;20028;-56
2021/07/04 05:47:52;;;;;;;2.08;1.63;;;25.50;54.30;;;;;;5062099;28;20041;-57
2021/07/04 05:50:19;;;;;;;2.17;1.80;;;25.50;54.20;;;;;;5052932;28;20036;-55
2021/07/04 05:52:45;;;;;;;2.55;1.77;;;25.60;54.20;;;;;;5061954;28;20440;-56
2021/07/04 05:55:12;;;;;;;3.47;1.70;;;25.50;54.30;;;;;;5053223;28;20509;-54
2021/07/04 05:57:38;;;;;;;2.47;1.73;;;25.60;54.20;;;;;;5056718;28;20040;-54
2021/07/04 06:00:08;;;;;;;2.15;1.52;;;25.60;54.30;;;;;;5072030;28;20045;-50
2021/07/04 06:02:33;;;;;;;3.53;1.80;;;25.60;54.30;;;;;;5058099;28;20105;-54
2021/07/04 06:04:59;;;;;;;2.33;1.88;;;25.50;54.40;;;;;;5072242;28;20115;-53
2021/07/04 06:07:25;;;;;;;2.03;1.52;;;25.60;54.30;;;;;;5072661;28;20029;-52
2021/07/04 06:09:50;;;;;;;2.47;1.88;;;25.60;54.40;;;;;;5061050;28;20032;-51
2021/07/04 06:12:16;;;;;;;2.58;1.83;;;25.60;54.30;;;;;;5051546;28;20033;-54
2021/07/04 06:14:42;;;;;;;1.85;1.48;;;25.60;54.40;;;;;;5072596;28;20513;-49
2021/07/04 06:17:08;;;;;;;2.95;1.60;;;25.60;54.40;;;;;;5065915;28;20047;-53
2021/07/04 06:19:34;;;;;;;2.50;1.70;;;25.60;54.40;;;;;;5069064;28;20040;-56
2021/07/04 06:21:59;;;;;;;3.58;1.80;;;25.60;54.30;;;;;;5071923;28;20020;-56
2021/07/04 06:24:25;;;;;;;2.70;1.80;;;25.60;54.30;;;;;;5072222;28;20060;-54
2021/07/04 06:26:50;;;;;;;2.95;1.75;;;25.70;54.40;;;;;;5072610;28;20040;-48
2021/07/04 06:29:16;;;;;;;3.45;1.95;;;25.70;54.50;;;;;;5052171;28;20025;-55
2021/07/04 06:31:42;;;;;;;2.13;1.60;;;25.70;54.30;;;;;;5070465;28;20029;-48
2021/07/04 06:34:08;;;;;;;3.30;1.85;;;25.70;54.40;;;;;;5052317;28;20433;-54
2021/07/04 06:36:34;;;;;;;2.38;1.90;;;25.70;54.40;;;;;;5053020;28;20029;-47
2021/07/04 06:38:59;;;;;;;2.22;1.58;;;25.70;54.30;;;;;;5035289;28;20035;-48
2021/07/04 06:41:26;;;;;;;3.10;1.98;;;25.70;54.30;;;;;;5053254;28;20048;-52
2021/07/04 06:43:52;;;;;;;1.88;1.75;;;25.70;54.40;;;;;;5062547;28;20098;-52
2021/07/04 06:46:18;;;;;;;2.08;1.73;;;25.70;54.40;;;;;;5053525;28;20041;-50
2021/07/04 06:48:43;;;;;;;1.88;1.70;;;25.70;54.40;;;;;;5063391;28;20386;-55
2021/07/04 06:51:09;;;;;;;3.70;1.92;;;25.80;54.50;;;;;;5051565;28;20114;-54
2021/07/04 06:53:36;;;;;;;2.08;1.88;;;25.80;54.50;;;;;;5057379;28;20039;-49
2021/07/04 06:56:02;;;;;;;1.92;1.75;;;25.80;54.50;;;;;;5071068;28;20021;-55
2021/07/04 06:58:28;;;;;;;3.67;1.92;;;25.80;54.40;;;;;;5054610;28;20040;-53
2021/07/04 07:00:54;;;;;;;2.00;1.60;;;25.80;54.40;;;;;;5071070;28;20048;-54
2021/07/04 07:03:20;;;;;;;3.83;1.70;;;25.80;54.50;;;;;;5068857;28;20027;-52
2021/07/04 07:05:45;;;;;;;3.05;1.60;;;25.70;54.50;;;;;;5071546;28;20116;-54
2021/07/04 07:08:11;;;;;;;3.35;1.75;;;25.80;54.70;;;;;;5071820;28;20032;-55
2021/07/04 07:10:37;;;;;;;2.83;1.80;;;25.80;54.50;;;;;;5075061;28;20393;-57
2021/07/04 07:13:06;;;;;;;1.95;1.67;;;25.80;54.50;;;;;;5058353;28;20031;-58
2021/07/04 07:15:32;;;;;;;3.40;1.85;;;25.90;54.50;;;;;;5072010;28;20445;-58
2021/07/04 07:17:58;;;;;;;3.17;1.83;;;25.90;54.50;;;;;;5064122;28;20428;-55
2021/07/04 07:20:27;;;;;;;3.17;2.10;;;25.80;54.40;;;;;;5070921;28;20020;-55
2021/07/04 07:22:53;;;;;;;2.95;1.90;;;25.90;54.50;;;;;;5070385;28;20115;-54
2021/07/04 07:25:19;;;;;;;2.25;1.70;;;25.90;54.50;;;;;;5070114;28;20082;-58
2021/07/04 07:27:46;;;;;;;2.17;1.75;;;25.90;54.60;;;;;;5058394;28;20032;-56
2021/07/04 07:30:12;;;;;;;2.30;1.83;;;25.80;54.70;;;;;;5050471;28;20064;-53
2021/07/04 07:32:39;;;;;;;3.13;1.90;;;25.80;54.70;;;;;;5051397;28;20545;-52
2021/07/04 07:35:09;;;;;;;2.97;2.08;;;25.80;54.70;;;;;;5050092;28;20025;-55
2021/07/04 07:37:35;;;;;;;2.67;1.90;;;25.90;54.60;;;;;;5069465;28;20032;-52
2021/07/04 07:40:01;;;;;;;2.65;2.08;;;25.90;54.50;;;;;;5069793;28;20078;-56
2021/07/04 07:42:26;;;;;;;3.03;1.80;;;25.90;54.60;;;;;;5069615;28;20485;-54
2021/07/04 07:44:52;;;;;;;2.50;1.90;;;25.90;54.60;;;;;;5070800;28;20039;-49
2021/07/04 07:47:18;;;;;;;3.30;2.58;;;25.80;54.80;;;;;;5070130;28;20284;-45
2021/07/04 07:49:44;;;;;;;5.97;3.40;;;25.70;55.60;;;;;;5067946;28;20035;-49
2021/07/04 07:52:09;;;;;;;8.07;2.72;;;25.50;56.30;;;;;;5065977;28;20021;-47
2021/07/04 07:54:36;;;;;;;4.88;3.10;;;25.40;56.80;;;;;;5064157;28;20069;-48
2021/07/04 07:57:02;;;;;;;3.70;2.70;;;25.30;57.00;;;;;;5067550;28;20103;-52
2021/07/04 07:59:29;;;;;;;5.65;2.95;;;25.30;56.90;;;;;;5064313;28;20080;-56
2021/07/04 08:01:55;;;;;;;3.58;2.88;;;25.30;56.80;;;;;;5068892;28;20040;-53
2021/07/04 08:04:21;;;;;;;6.95;3.08;;;25.20;57.30;;;;;;5063600;28;20036;-44
2021/07/04 08:06:46;;;;;;;3.38;2.70;;;25.20;57.60;;;;;;5065176;28;20029;-51
2021/07/04 08:09:12;;;;;;;6.82;3.70;;;25.20;57.60;;;;;;5063449;28;20029;-48
2021/07/04 08:11:38;;;;;;;4.82;2.88;;;25.20;57.30;;;;;;5065416;28;20394;-50
2021/07/04 08:14:04;;;;;;;7.68;3.50;;;25.20;57.00;;;;;;5070223;28;20492;-53
2021/07/04 08:16:30;;;;;;;5.45;2.90;;;25.30;56.80;;;;;;5072184;28;20115;-50
2021/07/04 08:18:55;;;;;;;6.38;3.20;;;25.30;56.90;;;;;;5068065;28;20158;-53
2021/07/04 08:21:21;;;;;;;3.42;3.08;;;25.10;57.30;;;;;;5068897;28;20020;-48
2021/07/04 08:23:47;;;;;;;4.32;3.30;;;25.10;57.20;;;;;;5071797;28;20389;-48
2021/07/04 08:26:13;;;;;;;4.20;3.03;;;24.90;57.60;;;;;;5071757;28;20032;-51
2021/07/04 08:28:39;;;;;;;3.97;3.17;;;24.80;58.10;;;;;;5055372;28;20081;-48
2021/07/04 08:31:05;;;;;;;3.53;2.97;;;24.90;57.80;;;;;;5069851;28;20032;-45
2021/07/04 08:33:30;;;;;;;3.25;2.90;;;24.90;57.80;;;;;;5069706;28;20031;-45
2021/07/04 08:35:56;;;;;;;4.80;3.55;;;24.80;58.00;;;;;;5071545;28;20032;-52
2021/07/04 08:38:22;;;;;;;5.57;3.50;;;24.70;58.50;;;;;;5068378;28;20040;-44
2021/07/04 08:40:50;;;;;;;4.38;3.65;;;24.60;58.00;;;;;;5069849;28;20025;-45
2021/07/04 08:43:30;;;;;;;4.10;3.45;;;24.70;58.20;;;;;;5071805;28;20036;-48
2021/07/04 08:45:56;;;;;;;4.05;3.15;;;24.70;58.50;;;;;;5071351;28;20046;-45
2021/07/04 08:48:22;;;;;;;6.80;3.60;;;24.80;58.60;;;;;;5070083;28;20095;-47
2021/07/04 08:50:48;;;;;;;5.68;3.95;;;24.60;58.60;;;;;;5071681;28;20020;-45
2021/07/04 08:53:14;;;;;;;4.93;3.22;;;24.70;58.20;;;;;;5071218;28;20032;-45
2021/07/04 08:55:45;;;;;;;4.65;3.40;;;24.70;58.10;;;;;;5072249;28;20029;-44
2021/07/04 08:58:11;;;;;;;4.00;3.60;;;24.80;58.00;;;;;;5069438;28;20025;-48
2021/07/04 09:00:37;;;;;;;4.85;3.55;;;24.70;57.80;;;;;;5078187;28;20056;-51
2021/07/04 09:03:25;;;;;;;5.78;3.20;;;24.70;58.10;;;;;;5072517;28;20041;-49
2021/07/04 09:05:51;;;;;;;4.82;3.42;;;24.80;58.40;;;;;;5068914;28;20083;-46
2021/07/04 09:08:20;;;;;;;3.80;3.33;;;24.70;58.10;;;;;;5066485;28;20102;-45
2021/07/04 09:11:10;;;;;;;3.50;2.90;;;24.50;58.50;;;;;;5071278;28;20021;-45
2021/07/04 09:13:36;;;;;;;4.53;3.13;;;24.50;58.10;;;;;;5068076;28;20033;-51
2021/07/04 09:16:08;;;;;;;4.43;3.20;;;24.50;58.30;;;;;;5068139;28;20051;-51
2021/07/04 09:18:37;;;;;;;5.35;3.20;;;24.50;57.70;;;;;;5071344;28;20401;-54
2021/07/04 09:21:23;;;;;;;3.40;2.95;;;24.50;58.10;;;;;;5065753;28;20520;-54
2021/07/04 09:23:50;;;;;;;13.80;3.65;;;24.60;57.90;;;;;;5053625;28;20478;-54
2021/07/04 09:26:42;;;;;;;4.95;2.83;;;24.60;57.70;;;;;;5054476;28;20339;-50
2021/07/04 09:29:09;;;;;;;3.58;2.58;;;24.60;57.70;;;;;;5066029;28;20025;-50
2021/07/04 09:31:36;;;;;;;3.40;2.33;;;24.60;57.20;;;;;;5065242;28;20102;-56
2021/07/04 09:34:08;;;;;;;4.25;2.53;;;24.80;56.20;;;;;;5053463;28;20032;-52
2021/07/04 09:36:35;;;;;;;3.97;2.78;;;24.90;56.80;;;;;;5055816;28;20033;-53
2021/07/04 09:39:14;;;;;;;3.10;2.80;;;24.80;56.00;;;;;;5070564;28;20068;-58
2021/07/04 09:42:00;;;;;;;4.28;2.83;;;24.70;56.30;;;;;;5071964;28;20047;-50
2021/07/04 09:44:25;;;;;;;5.38;2.75;;;24.90;56.30;;;;;;5064537;28;20056;-57
2021/07/04 09:47:14;;;;;;;4.63;2.60;;;25.00;56.30;;;;;;5059772;28;20470;-52
2021/07/04 09:49:40;;;;;;;4.40;2.30;;;25.00;55.70;;;;;;5072130;28;20060;-52
2021/07/04 09:52:20;;;;;;;3.22;2.55;;;24.80;55.50;;;;;;5072459;28;20066;-55
2021/07/04 09:55:02;;;;;;;4.70;2.67;;;24.80;56.40;;;;;;5073458;28;20107;-50
2021/07/04 09:57:48;;;;;;;5.03;2.63;;;24.90;55.50;;;;;;5059433;28;20044;-53
2021/07/04 10:00:18;;;;;;;4.88;2.83;;;25.00;55.70;;;;;;5053243;28;20469;-48
2021/07/04 10:03:17;;;;;;;3.08;2.47;;;25.00;55.40;;;;;;5053681;28;20043;-49
2021/07/04 10:05:55;;;;;;;3.28;2.47;;;25.00;56.00;;;;;;5056209;28;20043;-49
2021/07/04 10:08:41;;;;;;;3.42;2.53;;;25.10;55.80;;;;;;5072131;28;20021;-54
2021/07/04 10:11:14;;;;;;;4.18;2.20;;;25.10;55.90;;;;;;5057307;28;20035;-48
2021/07/04 10:13:43;;;;;;;3.40;2.88;;;25.00;55.20;;;;;;5048863;28;20036;-53
2021/07/04 10:16:11;;;;;;;2.90;2.58;;;24.90;55.10;;;;;;5059241;28;20035;-49
2021/07/04 10:18:37;;;;;;;2.47;2.28;;;24.90;55.30;;;;;;5061109;28;20036;-52
2021/07/04 10:21:04;;;;;;;3.83;2.75;;;25.00;55.00;;;;;;5061138;28;20028;-54
2021/07/04 10:23:31;;;;;;;3.10;2.40;;;25.00;54.80;;;;;;5073672;28;20484;-50
2021/07/04 10:25:58;;;;;;;5.93;2.75;;;24.90;54.90;;;;;;5067902;28;20508;-48
2021/07/04 10:28:37;;;;;;;2.80;2.50;;;25.00;54.80;;;;;;5070876;28;20020;-55
2021/07/04 10:31:15;;;;;;;7.10;2.38;;;24.80;54.70;;;;;;5046360;28;20473;-57
2021/07/04 10:33:41;;;;;;;5.53;2.55;;;25.00;55.30;;;;;;5061842;28;20166;-51
2021/07/04 10:36:21;;;;;;;3.00;2.45;;;25.10;54.40;;;;;;5060153;28;20494;-48
2021/07/04 10:38:58;;;;;;;7.68;2.63;;;25.00;54.40;;;;;;5062243;28;20111;-51
2021/07/04 10:41:33;;;;;;;3.70;2.67;;;24.90;54.70;;;;;;5068089;28;20024;-50
2021/07/04 10:44:12;;;;;;;5.38;2.42;;;24.80;54.70;;;;;;5059736;28;20040;-52
2021/07/04 10:46:43;;;;;;;2.35;2.05;;;25.00;54.80;;;;;;5065078;28;20441;-54
2021/07/04 10:49:31;;;;;;;4.50;2.25;;;25.00;55.00;;;;;;5051856;28;20374;-50
2021/07/04 10:52:40;;;;;;;2.70;2.25;;;24.90;54.20;;;;;;5068021;28;20391;-52
2021/07/04 10:55:11;;;;;;;5.28;2.50;;;24.90;54.20;;;;;;5041730;28;20128;-51
2021/07/04 10:57:52;;;;;;;4.85;2.13;;;24.70;53.70;;;;;;5061116;28;20094;-53
2021/07/04 11:00:27;;;;;;;3.80;2.35;;;24.80;54.40;;;;;;5052566;28;20051;-48
2021/07/04 11:02:57;;;;;;;3.15;2.20;;;24.70;53.80;;;;;;5067913;28;20486;-54
2021/07/04 11:05:34;;;;;;;3.83;2.30;;;24.90;54.00;;;;;;5066166;28;20538;-52
2021/07/04 11:07:59;;;;;;;8.48;2.67;;;24.70;53.70;;;;;;5059571;28;20271;-53
2021/07/04 11:10:27;;;;;;;4.13;2.20;;;24.90;53.80;;;;;;5054950;28;20043;-52
2021/07/04 11:13:16;;;;;;;3.22;2.60;;;24.80;53.90;;;;;;5051923;28;20032;-53
2021/07/04 11:15:44;;;;;;;2.83;2.60;;;24.90;53.70;;;;;;5052066;28;20462;-54
2021/07/04 11:18:15;;;;;;;4.18;2.38;;;24.90;53.50;;;;;;5063027;28;20047;-52
2021/07/04 11:20:41;;;;;;;6.60;3.37;;;25.00;53.70;;;;;;5062688;28;20398;-54
2021/07/04 11:23:10;;;;;;;3.35;1.98;;;24.90;53.90;;;;;;5064584;28;20040;-54
2021/07/04 11:25:45;;;;;;;4.43;2.25;;;24.90;54.00;;;;;;5051703;28;20060;-53
2021/07/04 11:28:16;;;;;;;2.58;2.38;;;25.10;54.10;;;;;;5063522;28;20493;-53
2021/07/04 11:30:43;;;;;;;;;;;25.10;54.10;;;;;;5056740;28;20086;-54
2021/07/04 11:33:37;;;;;;;2.53;2.08;;;25.20;54.40;;;;;;5070004;28;19943;-51
2021/07/04 11:36:08;;;;;;;3.00;2.15;;;25.20;54.30;;;;;;5059161;28;20121;-60
2021/07/04 11:38:38;;;;;;;5.65;2.33;;;25.20;54.30;;;;;;5066265;28;20032;-51
2021/07/04 11:41:06;;;;;;;3.67;2.20;;;25.00;53.50;;;;;;5070745;28;20370;-60
2021/07/04 11:43:32;;;;;;;2.42;2.22;;;25.10;53.80;;;;;;5058202;28;20025;-52
2021/07/04 11:46:01;;;;;;;2.85;2.20;;;25.20;54.20;;;;;;5051526;28;20036;-49
2021/07/04 11:48:45;;;;;;;3.90;2.28;;;25.20;54.70;;;;;;5055396;28;20040;-49
2021/07/04 11:51:20;;;;;;;5.28;3.00;;;25.20;54.30;;;;;;5069529;28;20040;-51
2021/07/04 11:53:47;;;;;;;2.63;2.40;;;25.20;54.30;;;;;;5070210;28;20047;-51
2021/07/04 11:56:14;;;;;;;2.85;2.25;;;25.30;54.00;;;;;;5052221;28;20435;-53
2021/07/04 11:58:40;;;;;;;4.97;2.45;;;25.30;54.10;;;;;;5068639;28;20062;-56
2021/07/04 12:01:16;;;;;;;3.53;2.30;;;25.20;53.50;;;;;;5059759;28;20049;-59
2021/07/04 12:03:42;;;;;;;3.80;2.40;;;25.30;53.70;;;;;;5058525;28;20029;-51
2021/07/04 12:06:08;;;;;;;3.80;2.50;;;25.30;54.10;;;;;;5070706;28;20453;-49
2021/07/04 12:08:54;;;;;;;4.47;2.47;;;25.10;53.10;;;;;;5061954;28;20060;-52
2021/07/04 12:11:43;;;;;;;5.20;2.88;;;25.10;53.90;;;;;;5069520;28;20036;-51
2021/07/04 12:14:38;;;;;;;4.15;2.22;;;25.20;54.10;;;;;;5050899;28;20056;-47
2021/07/04 12:17:28;;;;;;;3.47;2.42;;;25.10;54.10;;;;;;5034448;28;20085;-60
2021/07/04 12:19:57;;;;;;;4.15;2.70;;;25.20;54.10;;;;;;5052760;28;20342;-49
2021/07/04 12:22:26;;;;;;;5.03;2.72;;;25.00;54.10;;;;;;5068817;28;20096;-53
2021/07/04 12:24:52;;;;;;;3.35;2.65;;;25.00;54.40;;;;;;5063293;28;20032;-54
2021/07/04 12:27:19;;;;;;;4.20;2.55;;;25.10;53.80;;;;;;5069907;28;20040;-53
2021/07/04 12:30:25;;;;;;;5.32;2.78;;;25.10;54.10;;;;;;5070606;28;20046;-53
2021/07/04 12:32:55;;;;;;;7.05;2.35;;;25.20;54.40;;;;;;5050950;28;20033;-50
2021/07/04 12:35:34;;;;;;;3.25;2.90;;;25.30;54.40;;;;;;5060497;28;20082;-47
2021/07/04 12:38:03;;;;;;;4.43;3.05;;;25.40;55.20;;;;;;5063512;28;20385;-53
2021/07/04 12:40:48;;;;;;;3.95;3.20;;;25.50;55.70;;;;;;5033391;28;20029;-49
2021/07/04 12:43:16;;;;;;;6.22;3.20;;;25.80;55.90;;;;;;5053014;28;20032;-66
2021/07/04 12:45:47;;;;;;;4.15;3.05;;;25.80;54.50;;;;;;5070650;28;20056;-61
2021/07/04 12:48:14;;;;;;;;;;;25.90;54.10;;;;;;5061484;28;20029;-62
2021/07/04 12:50:44;;;;;;;4.07;3.10;;;25.80;52.90;;;;;;5051143;28;19989;-64
2021/07/04 12:53:11;;;;;;;3.55;2.85;;;26.00;52.60;;;;;;5050408;28;20072;-62
2021/07/04 12:55:37;;;;;;;3.67;3.15;;;26.00;52.80;;;;;;5050893;28;20394;-62